createdAt,value
2022-11-15T00:00:12.097Z,6.30
2022-11-15T00:03:01.382Z,7.90
2022-11-15T00:05:49.446Z,6.27
2022-11-15T00:08:36.792Z,5.50
2022-11-15T00:11:23.641Z,6.43
2022-11-15T00:14:10.799Z,4.25
2022-11-15T00:16:58.447Z,8.07
2022-11-15T00:19:46.781Z,7.07
2022-11-15T00:22:35.291Z,5.78
2022-11-15T00:25:22.476Z,5.70
2022-11-15T00:28:09.937Z,5.43
2022-11-15T00:31:02.428Z,7.22
2022-11-15T00:33:49.655Z,8.77
2022-11-15T00:36:38.205Z,7.10
2022-11-15T00:39:25.466Z,7.40
2022-11-15T00:42:12.808Z,8.82
2022-11-15T00:45:00.371Z,8.65
2022-11-15T00:47:47.560Z,6.67
2022-11-15T00:50:35.179Z,6.72
2022-11-15T00:53:23.739Z,7.93
2022-11-15T00:56:11.369Z,8.98
2022-11-15T00:58:58.761Z,5.50
2022-11-15T01:01:46.037Z,8.60
2022-11-15T01:04:33.546Z,6.88
2022-11-15T01:07:20.798Z,5.45
2022-11-15T01:10:11.105Z,5.35
2022-11-15T01:12:58.524Z,3.60
2022-11-15T01:15:47.301Z,5.80
2022-11-15T01:18:34.367Z,5.78
2022-11-15T01:21:22.661Z,4.10
2022-11-15T01:24:14.022Z,16.00
2022-11-15T01:27:02.984Z,12.80
2022-11-15T01:29:50.088Z,9.03
2022-11-15T01:32:37.254Z,24.85
2022-11-15T01:35:24.838Z,5.50
2022-11-15T01:38:12.044Z,5.22
2022-11-15T01:40:59.028Z,5.40
2022-11-15T01:43:50.984Z,5.40
2022-11-15T01:46:40.076Z,4.55
2022-11-15T01:49:31.132Z,4.88
2022-11-15T01:52:22.828Z,5.43
2022-11-15T01:55:16.573Z,5.57
2022-11-15T01:58:06.790Z,5.93
2022-11-15T02:00:55.788Z,6.70
2022-11-15T02:03:50.883Z,3.88
2022-11-15T02:06:39.573Z,4.88
2022-11-15T02:09:26.528Z,5.03
2022-11-15T02:12:17.176Z,5.13
2022-11-15T02:15:06.424Z,4.03
2022-11-15T02:18:13.698Z,4.78
2022-11-15T02:21:29.690Z,4.35
2022-11-15T02:25:05.312Z,4.18
2022-11-15T02:28:22.817Z,3.67
2022-11-15T02:31:19.894Z,5.18
2022-11-15T02:34:18.808Z,4.13
2022-11-15T02:37:18.034Z,4.18
2022-11-15T02:40:16.828Z,4.28
2022-11-15T02:43:30.121Z,6.27
2022-11-15T02:46:47.276Z,3.95
2022-11-15T02:49:36.846Z,3.67
2022-11-15T02:52:27.215Z,13.52
2022-11-15T02:55:31.100Z,4.13
2022-11-15T02:58:59.871Z,4.73
2022-11-15T03:02:08.324Z,4.25
2022-11-15T03:04:59.756Z,3.25
2022-11-15T03:08:02.060Z,4.88
2022-11-15T03:11:03.478Z,3.55
2022-11-15T03:14:00.914Z,3.47
2022-11-15T03:17:01.848Z,5.70
2022-11-15T03:19:52.673Z,5.57
2022-11-15T03:22:46.395Z,3.53
2022-11-15T03:25:37.084Z,4.05
2022-11-15T03:28:33.737Z,3.87
2022-11-15T03:31:44.448Z,2.88
2022-11-15T03:34:42.518Z,5.90
2022-11-15T03:37:39.323Z,3.25
2022-11-15T03:40:35.578Z,3.55
2022-11-15T03:43:33.301Z,4.27
2022-11-15T03:46:28.338Z,4.15
2022-11-15T03:49:24.386Z,3.30
2022-11-15T03:52:15.448Z,5.28
2022-11-15T03:55:06.763Z,4.25
2022-11-15T03:57:59.600Z,5.07
2022-11-15T04:00:46.801Z,3.00
2022-11-15T04:03:34.598Z,3.95
2022-11-15T04:06:22.129Z,4.05
2022-11-15T04:09:10.738Z,4.00
2022-11-15T04:11:57.957Z,5.37
2022-11-15T04:15:05.501Z,17.55
2022-11-15T04:17:55.087Z,5.15
2022-11-15T04:21:07.947Z,4.22
2022-11-15T04:24:12.934Z,3.97
2022-11-15T04:27:02.080Z,3.60
2022-11-15T04:29:52.140Z,4.88
2022-11-15T04:32:40.635Z,5.00
2022-11-15T04:35:27.955Z,4.53
2022-11-15T04:38:15.002Z,4.22
2022-11-15T04:41:05.902Z,5.57
2022-11-15T04:43:54.760Z,4.60
2022-11-15T04:46:45.083Z,5.55
2022-11-15T04:49:35.477Z,4.57
2022-11-15T04:52:22.910Z,5.47
2022-11-15T04:55:10.578Z,5.53
2022-11-15T04:58:02.069Z,5.32
2022-11-15T05:00:51.036Z,3.97
2022-11-15T05:03:55.667Z,4.00
2022-11-15T05:06:43.150Z,5.13
2022-11-15T05:09:30.838Z,5.80
2022-11-15T05:12:17.821Z,5.13
2022-11-15T05:15:05.670Z,5.20
2022-11-15T05:17:59.377Z,4.70
2022-11-15T05:20:46.677Z,4.60
2022-11-15T05:23:33.880Z,3.73
2022-11-15T05:26:21.548Z,5.35
2022-11-15T05:29:08.805Z,3.50
2022-11-15T05:31:55.682Z,4.00
2022-11-15T05:34:44.258Z,4.65
2022-11-15T05:37:32.890Z,4.27
2022-11-15T05:40:20.148Z,4.38
2022-11-15T05:43:08.216Z,5.30
2022-11-15T05:45:55.751Z,5.18
2022-11-15T05:48:49.300Z,5.25
2022-11-15T05:51:38.580Z,6.47
2022-11-15T05:54:28.626Z,4.50
2022-11-15T05:57:20.637Z,5.45
2022-11-15T06:00:10.448Z,5.60
2022-11-15T06:02:57.258Z,4.53
2022-11-15T06:05:44.651Z,3.03
2022-11-15T06:08:33.262Z,5.45
2022-11-15T06:11:20.668Z,4.88
2022-11-15T06:14:07.940Z,3.50
2022-11-15T06:16:55.363Z,6.10
2022-11-15T06:19:42.707Z,3.27
2022-11-15T06:22:30.614Z,3.97
2022-11-15T06:25:19.696Z,2.65
2022-11-15T06:28:06.920Z,4.70
2022-11-15T06:30:54.582Z,3.35
2022-11-15T06:33:42.309Z,3.80
2022-11-15T06:36:32.463Z,2.55
2022-11-15T06:39:20.093Z,3.42
2022-11-15T06:42:10.733Z,3.38
2022-11-15T06:44:57.778Z,3.20
2022-11-15T06:47:47.889Z,2.73
2022-11-15T06:50:35.176Z,4.13
2022-11-15T06:53:22.583Z,3.85
2022-11-15T06:56:10.256Z,3.47
2022-11-15T06:58:59.451Z,4.50
2022-11-15T07:01:46.625Z,3.93
2022-11-15T07:04:33.869Z,4.15
2022-11-15T07:07:21.603Z,2.72
2022-11-15T07:10:10.415Z,3.92
2022-11-15T07:12:58.389Z,5.00
2022-11-15T07:15:46.635Z,3.73
2022-11-15T07:18:36.668Z,6.63
2022-11-15T07:21:27.564Z,4.90
2022-11-15T07:24:15.419Z,5.55
2022-11-15T07:27:02.799Z,4.35
2022-11-15T07:29:53.147Z,5.70
2022-11-15T07:32:41.609Z,5.60
2022-11-15T07:35:31.470Z,6.05
2022-11-15T07:38:20.582Z,6.85
2022-11-15T07:41:08.730Z,4.65
2022-11-15T07:43:55.845Z,5.27
2022-11-15T07:46:43.030Z,4.18
2022-11-15T07:49:31.647Z,5.78
2022-11-15T07:52:18.806Z,5.50
2022-11-15T07:55:06.680Z,4.28
2022-11-15T07:57:53.682Z,4.93
2022-11-15T08:00:42.072Z,5.00
2022-11-15T08:03:29.655Z,5.80
2022-11-15T08:06:18.886Z,3.90
2022-11-15T08:09:06.181Z,3.85
2022-11-15T08:11:53.997Z,3.13
2022-11-15T08:14:41.030Z,5.30
2022-11-15T08:17:28.720Z,3.42
2022-11-15T08:20:16.876Z,4.45
2022-11-15T08:23:07.040Z,4.55
2022-11-15T08:25:54.325Z,3.30
2022-11-15T08:28:41.440Z,2.50
2022-11-15T08:31:28.369Z,2.97
2022-11-15T08:34:15.577Z,2.65
2022-11-15T08:37:03.767Z,3.30
2022-11-15T08:39:52.424Z,3.57
2022-11-15T08:42:42.910Z,1.67
2022-11-15T08:45:31.164Z,3.40
2022-11-15T08:48:18.300Z,3.97
2022-11-15T08:51:07.155Z,3.75
2022-11-15T08:53:54.388Z,3.10
2022-11-15T08:56:44.274Z,3.22
2022-11-15T08:59:31.587Z,3.38
2022-11-15T09:02:18.971Z,2.58
2022-11-15T09:05:07.685Z,3.22
2022-11-15T09:07:56.100Z,2.50
2022-11-15T09:10:43.164Z,2.40
2022-11-15T09:13:31.668Z,3.03
2022-11-15T09:16:19.381Z,4.43
2022-11-15T09:19:11.713Z,3.72
2022-11-15T09:21:59.509Z,2.60
2022-11-15T09:24:47.757Z,2.30
2022-11-15T09:27:35.002Z,3.22
2022-11-15T09:30:23.571Z,2.75
2022-11-15T09:33:12.367Z,3.17
2022-11-15T09:36:03.658Z,2.37
2022-11-15T09:38:52.830Z,1.92
2022-11-15T09:42:12.323Z,3.10
2022-11-15T09:45:15.502Z,2.35
2022-11-15T09:48:29.900Z,2.20
2022-11-15T09:51:32.789Z,2.67
2022-11-15T09:57:16.443Z,2.67
2022-11-15T10:03:15.368Z,3.40
2022-11-15T10:05:46.967Z,2.53
2022-11-15T10:08:54.892Z,3.50
2022-11-15T10:11:37.368Z,2.72
2022-11-15T10:14:16.128Z,3.28
2022-11-15T10:17:32.782Z,2.72
2022-11-15T10:20:14.927Z,41.73
2022-11-15T10:22:49.589Z,9.43
2022-11-15T10:25:23.299Z,8.30
2022-11-15T10:28:04.043Z,5.53
2022-11-15T10:30:36.446Z,6.38
2022-11-15T10:33:32.176Z,8.67
2022-11-15T10:36:27.794Z,7.13
2022-11-15T10:38:59.722Z,6.95
2022-11-15T10:41:45.084Z,7.53
2022-11-15T10:44:29.535Z,3.97
2022-11-15T10:47:43.392Z,4.73
2022-11-15T10:50:43.384Z,5.20
2022-11-15T10:53:26.932Z,3.65
2022-11-15T10:56:07.980Z,2.95
2022-11-15T10:58:43.613Z,3.92
2022-11-15T11:01:20.230Z,4.73
2022-11-15T11:04:02.754Z,4.43
2022-11-15T11:06:50.239Z,5.40
2022-11-15T11:09:35.359Z,4.78
2022-11-15T11:12:07.171Z,4.75
2022-11-15T11:14:39.363Z,6.47
2022-11-15T11:17:26.832Z,6.05
2022-11-15T11:20:07.262Z,5.38
2022-11-15T11:22:52.933Z,4.10
2022-11-15T11:25:54.084Z,3.78
2022-11-15T11:28:41.729Z,6.40
2022-11-15T11:31:33.675Z,5.22
2022-11-15T11:34:18.193Z,3.70
2022-11-15T11:37:06.646Z,5.55
2022-11-15T11:39:58.700Z,4.38
2022-11-15T11:42:54.576Z,3.03
2022-11-15T11:45:56.239Z,5.35
2022-11-15T11:48:43.501Z,3.92
2022-11-15T11:51:23.031Z,3.92
2022-11-15T11:54:01.415Z,4.13
2022-11-15T11:56:34.954Z,2.33
2022-11-15T11:59:15.000Z,3.95
2022-11-15T12:04:43.026Z,2.95
2022-11-15T12:07:35.504Z,3.60
2022-11-15T12:10:19.435Z,5.23
2022-11-15T12:13:03.159Z,3.95
2022-11-15T12:15:44.325Z,2.45
2022-11-15T12:18:18.634Z,1.27
2022-11-15T12:21:04.689Z,3.38
2022-11-15T12:23:47.679Z,2.17
2022-11-15T12:26:25.436Z,3.15
2022-11-15T12:29:08.814Z,2.28
2022-11-15T12:31:44.766Z,3.60
2022-11-15T12:34:39.246Z,2.03
2022-11-15T12:38:19.574Z,2.10
2022-11-15T12:41:16.663Z,2.20
2022-11-15T12:43:49.592Z,7.15
2022-11-15T12:47:04.333Z,2.97
2022-11-15T12:49:48.505Z,5.50
2022-11-15T12:52:19.151Z,9.17
2022-11-15T12:55:06.297Z,7.30
2022-11-15T12:57:45.542Z,8.50
2022-11-15T13:00:48.176Z,6.78
2022-11-15T13:03:39.586Z,7.63
2022-11-15T13:06:14.917Z,8.67
2022-11-15T13:08:51.896Z,12.30
2022-11-15T13:11:52.199Z,9.20
2022-11-15T13:14:56.141Z,8.55
2022-11-15T13:17:41.264Z,13.63
2022-11-15T13:20:27.726Z,8.57
2022-11-15T13:23:10.007Z,8.43
2022-11-15T13:26:12.199Z,9.70
2022-11-15T13:28:46.775Z,11.15
2022-11-15T13:31:31.421Z,7.55
2022-11-15T13:34:13.618Z,8.73
2022-11-15T13:36:55.054Z,11.20
2022-11-15T13:39:31.967Z,5.82
2022-11-15T13:42:01.067Z,10.75
2022-11-15T13:44:33.496Z,7.75
2022-11-15T13:47:09.326Z,7.03
2022-11-15T13:49:38.864Z,9.90
2022-11-15T13:52:12.640Z,5.00
2022-11-15T13:54:47.561Z,6.00
2022-11-15T13:57:23.634Z,3.95
2022-11-15T13:59:56.079Z,5.60
2022-11-15T14:02:33.028Z,9.20
2022-11-15T14:05:17.847Z,6.40
2022-11-15T14:07:59.290Z,5.07
2022-11-15T14:10:32.734Z,7.20
2022-11-15T14:13:03.615Z,6.87
2022-11-15T14:15:36.573Z,7.47
2022-11-15T14:18:06.742Z,8.07
2022-11-15T14:20:40.418Z,6.03
2022-11-15T14:23:27.655Z,3.67
2022-11-15T14:25:59.294Z,3.47
2022-11-15T14:28:39.122Z,4.88
2022-11-15T14:31:15.398Z,6.47
2022-11-15T14:33:47.514Z,4.32
2022-11-15T14:36:19.703Z,5.47
2022-11-15T14:38:50.447Z,4.03
2022-11-15T14:41:27.451Z,4.97
2022-11-15T14:43:56.328Z,3.85
2022-11-15T14:46:25.437Z,10.02
2022-11-15T14:48:55.973Z,3.85
2022-11-15T14:51:24.923Z,6.13
2022-11-15T14:53:56.453Z,6.03
2022-11-15T14:56:30.368Z,6.57
2022-11-15T14:58:59.568Z,5.10
2022-11-15T15:01:29.093Z,7.07
2022-11-15T15:03:59.295Z,7.00
2022-11-15T15:06:30.110Z,3.92
2022-11-15T15:09:00.323Z,5.95
2022-11-15T15:11:32.619Z,6.15
2022-11-15T15:14:02.355Z,4.63
2022-11-15T15:16:33.974Z,3.97
2022-11-15T15:19:02.819Z,5.38
2022-11-15T15:21:36.777Z,3.17
2022-11-15T15:24:15.907Z,2.28
2022-11-15T15:26:45.085Z,6.95
2022-11-15T15:29:17.051Z,6.73
2022-11-15T15:31:45.738Z,6.35
2022-11-15T15:34:16.943Z,7.38
2022-11-15T15:37:09.763Z,9.48
2022-11-15T15:39:40.303Z,9.63
2022-11-15T15:42:09.218Z,6.47
2022-11-15T15:44:37.990Z,10.82
2022-11-15T15:47:14.265Z,5.07
2022-11-15T15:49:43.284Z,6.80
2022-11-15T15:52:12.693Z,6.88
2022-11-15T15:54:43.632Z,13.03
2022-11-15T15:57:15.851Z,4.28
2022-11-15T15:59:44.578Z,5.05
2022-11-15T16:02:14.974Z,5.80
2022-11-15T16:04:46.078Z,4.75
2022-11-15T16:07:23.148Z,8.67
2022-11-15T16:10:02.615Z,6.63
2022-11-15T16:12:38.958Z,6.72
2022-11-15T16:15:11.090Z,7.97
2022-11-15T16:17:46.047Z,5.10
2022-11-15T16:20:34.414Z,7.70
2022-11-15T16:23:09.120Z,8.68
2022-11-15T16:25:44.621Z,7.32
2022-11-15T16:28:22.160Z,8.82
2022-11-15T16:31:00.754Z,10.85
2022-11-15T16:33:29.574Z,6.70
2022-11-15T16:35:58.549Z,8.93
2022-11-15T16:38:27.672Z,7.88
2022-11-15T16:40:57.758Z,6.57
2022-11-15T16:43:27.301Z,7.40
2022-11-15T16:45:59.953Z,9.30
2022-11-15T16:48:31.216Z,8.13
2022-11-15T16:51:01.361Z,6.60
2022-11-15T16:53:30.014Z,3.88
2022-11-15T16:56:00.221Z,2.63
2022-11-15T16:58:29.005Z,6.87
2022-11-15T17:01:01.456Z,4.80
2022-11-15T17:03:32.069Z,5.28
2022-11-15T17:06:00.913Z,5.55
2022-11-15T17:08:29.705Z,7.40
2022-11-15T17:10:59.858Z,4.50
2022-11-15T17:13:29.041Z,5.57
2022-11-15T17:16:07.236Z,6.78
2022-11-15T17:18:36.530Z,3.00
2022-11-15T17:21:10.045Z,6.03
2022-11-15T17:23:41.501Z,5.70
2022-11-15T17:26:33.018Z,6.28
2022-11-15T17:29:04.542Z,6.15
2022-11-15T17:31:34.158Z,6.07
2022-11-15T17:34:04.533Z,6.05
2022-11-15T17:36:33.629Z,4.30
2022-11-15T17:39:02.298Z,1.77
2022-11-15T17:41:33.115Z,2.30
2022-11-15T17:44:03.725Z,3.20
2022-11-15T17:46:34.120Z,1.10
2022-11-15T17:49:03.342Z,1.40
2022-11-15T17:51:31.920Z,1.85
2022-11-15T17:54:00.572Z,1.98
2022-11-15T17:56:32.148Z,1.75
2022-11-15T17:59:02.118Z,2.15
2022-11-15T18:01:33.523Z,2.83
2022-11-15T18:04:05.179Z,1.80
2022-11-15T18:06:36.350Z,3.22
2022-11-15T18:09:07.317Z,2.20
2022-11-15T18:11:46.737Z,3.75
2022-11-15T18:14:20.869Z,3.00
2022-11-15T18:16:49.921Z,2.55
2022-11-15T18:19:20.379Z,3.17
2022-11-15T18:21:59.284Z,2.63
2022-11-15T18:24:32.274Z,8.57
2022-11-15T18:27:06.549Z,5.13
2022-11-15T18:29:39.996Z,6.88
2022-11-15T18:32:15.175Z,2.80
2022-11-15T18:34:44.042Z,2.03
2022-11-15T18:37:14.651Z,1.38
2022-11-15T18:39:51.123Z,2.10
2022-11-15T18:42:23.863Z,1.95
2022-11-15T18:44:52.475Z,4.43
2022-11-15T18:47:21.122Z,2.45
2022-11-15T18:49:50.810Z,4.30
2022-11-15T18:52:19.957Z,3.17
2022-11-15T18:54:48.985Z,2.35
2022-11-15T18:57:18.182Z,3.58
2022-11-15T18:59:48.375Z,2.05
2022-11-15T19:02:17.270Z,10.25
2022-11-15T19:04:45.957Z,2.27
2022-11-15T19:07:19.438Z,3.08
2022-11-15T19:09:48.336Z,1.45
2022-11-15T19:12:17.052Z,4.82
2022-11-15T19:14:47.259Z,3.25
2022-11-15T19:17:16.098Z,4.33
2022-11-15T19:19:44.701Z,4.03
2022-11-15T19:22:13.488Z,4.75
2022-11-15T19:24:42.199Z,4.75
2022-11-15T19:27:11.171Z,1.08
2022-11-15T19:29:40.648Z,5.47
2022-11-15T19:32:10.847Z,4.57
2022-11-15T19:34:51.959Z,4.35
2022-11-15T19:37:20.976Z,5.15
2022-11-15T19:39:49.860Z,3.85
2022-11-15T19:42:25.295Z,4.37
2022-11-15T19:44:54.727Z,6.55
2022-11-15T19:47:30.464Z,5.25
2022-11-15T19:50:00.399Z,11.18
2022-11-15T19:52:29.829Z,4.95
2022-11-15T19:54:59.033Z,6.00
2022-11-15T19:57:27.990Z,5.00
2022-11-15T19:59:56.892Z,6.13
2022-11-15T20:02:27.183Z,4.53
2022-11-15T20:04:55.809Z,4.97
2022-11-15T20:07:24.609Z,4.77
2022-11-15T20:09:53.928Z,4.57
2022-11-15T20:12:22.559Z,4.28
2022-11-15T20:14:51.246Z,3.67
2022-11-15T20:17:21.127Z,4.00
2022-11-15T20:19:51.167Z,3.43
2022-11-15T20:22:19.726Z,5.63
2022-11-15T20:24:48.350Z,5.63
2022-11-15T20:27:17.460Z,4.90
2022-11-15T20:29:46.121Z,15.13
2022-11-15T20:32:14.798Z,6.50
2022-11-15T20:34:43.443Z,4.10
2022-11-15T20:37:13.568Z,5.88
2022-11-15T20:39:42.265Z,4.30
2022-11-15T20:42:10.874Z,6.57
2022-11-15T20:44:39.533Z,5.83
2022-11-15T20:47:08.441Z,5.10
2022-11-15T20:49:37.108Z,8.57
2022-11-15T20:52:06.152Z,6.57
2022-11-15T20:54:37.012Z,10.07
2022-11-15T20:57:05.676Z,5.37
2022-11-15T20:59:34.964Z,5.35
2022-11-15T21:02:03.879Z,5.32
2022-11-15T21:04:32.725Z,6.00
2022-11-15T21:07:01.672Z,9.50
2022-11-15T21:09:47.907Z,11.33
2022-11-15T21:12:19.165Z,13.27
2022-11-15T21:14:49.093Z,12.25
2022-11-15T21:17:17.961Z,8.73
2022-11-15T21:19:47.774Z,15.80
2022-11-15T21:22:16.832Z,9.83
2022-11-15T21:24:45.449Z,17.45
2022-11-15T21:27:15.483Z,22.05
2022-11-15T21:29:59.129Z,25.80
2022-11-15T21:32:29.375Z,21.73
2022-11-15T21:35:16.851Z,19.50
2022-11-15T21:37:50.584Z,23.80
2022-11-15T21:40:22.234Z,29.52
2022-11-15T21:42:52.861Z,30.15
2022-11-15T21:45:24.170Z,36.42
2022-11-15T21:47:52.907Z,32.90
2022-11-15T21:50:21.774Z,30.02
2022-11-15T21:52:50.329Z,35.60
2022-11-15T21:55:18.982Z,28.25
2022-11-15T21:58:01.862Z,27.83
2022-11-15T22:00:49.984Z,25.03
2022-11-15T22:03:20.340Z,25.23
2022-11-15T22:05:50.275Z,28.88
2022-11-15T22:08:18.895Z,27.63
2022-11-15T22:10:48.199Z,30.58
2022-11-15T22:13:17.041Z,39.13
2022-11-15T22:15:48.480Z,53.65
2022-11-15T22:18:21.081Z,41.80
2022-11-15T22:20:59.014Z,48.53
2022-11-15T22:23:30.289Z,32.40
2022-11-15T22:25:59.667Z,27.57
2022-11-15T22:28:29.208Z,39.28
2022-11-15T22:31:05.155Z,58.92
2022-11-15T22:33:41.567Z,24.17
2022-11-15T22:36:17.131Z,20.60
2022-11-15T22:38:50.504Z,41.80
2022-11-15T22:41:21.141Z,24.45
2022-11-15T22:43:49.887Z,20.92
2022-11-15T22:46:20.038Z,18.08
2022-11-15T22:48:49.010Z,13.90
2022-11-15T22:51:17.722Z,43.17
2022-11-15T22:53:46.425Z,64.28
2022-11-15T22:56:20.121Z,58.45
2022-11-15T22:58:51.822Z,61.33
2022-11-15T23:01:25.132Z,46.90
2022-11-15T23:04:02.814Z,64.70
2022-11-15T23:06:35.598Z,41.92
2022-11-15T23:09:06.436Z,37.53
2022-11-15T23:11:52.319Z,24.75
2022-11-15T23:14:21.116Z,26.42
2022-11-15T23:16:51.359Z,23.90
2022-11-15T23:19:20.103Z,12.65
2022-11-15T23:22:05.985Z,11.65
2022-11-15T23:24:35.229Z,16.20
2022-11-15T23:27:07.534Z,16.88
2022-11-15T23:29:58.514Z,13.60
2022-11-15T23:32:45.931Z,14.73
2022-11-15T23:35:14.690Z,11.50
2022-11-15T23:37:43.518Z,15.40
2022-11-15T23:40:14.011Z,13.20
2022-11-15T23:42:42.786Z,16.80
2022-11-15T23:45:13.111Z,9.13
2022-11-15T23:47:43.315Z,7.35
2022-11-15T23:50:12.785Z,12.25
2022-11-15T23:52:41.545Z,10.23
2022-11-15T23:55:11.223Z,5.30
2022-11-15T23:57:41.730Z,6.20
